Time;durP1;ratioP1;P1;durP2;ratioP2;P2;SDS_P1;SDS_P2;PMS_P1;PMS_P2;Temp;Humidity;BMP_temperature;BMP_pressure;BME280_temperature;BME280_humidity;BME280_pressure;Samples;Min_cycle;Max_cycle;Signal;HPM_P1;HPM_P2
2024/01/31 00:00:31;;;;;;;62.42;25.60;;;;;;;8.31;96.21;103144.66;3541810;40;20061;-67
2024/01/31 00:02:57;;;;;;;38.17;21.08;;;;;;;8.31;96.84;103140.19;3540925;40;20057;-67
2024/01/31 00:05:22;;;;;;;26.17;15.80;;;;;;;8.32;96.08;103141.06;3540627;40;20061;-67
2024/01/31 00:07:48;;;;;;;23.30;12.55;;;;;;;8.32;96.96;103141.06;3543351;40;20058;-67
2024/01/31 00:10:14;;;;;;;22.67;14.23;;;;;;;8.33;96.92;103140.13;3539855;40;20053;-67
2024/01/31 00:12:40;;;;;;;18.23;10.60;;;;;;;8.32;95.97;103139.25;3543691;40;20094;-67
2024/01/31 00:15:06;;;;;;;18.15;9.35;;;;;;;8.32;95.88;103141.06;3541482;40;20061;-67
2024/01/31 00:17:31;;;;;;;23.42;15.65;;;;;;;8.30;96.29;103142.88;3542947;40;20053;-67
2024/01/31 00:19:57;;;;;;;23.17;15.25;;;;;;;8.30;96.12;103148.22;3544248;40;20425;-67
2024/01/31 00:22:23;;;;;;;40.42;27.58;;;;;;;8.22;96.40;103139.44;3540796;40;20061;-67
2024/01/31 00:24:48;;;;;;;30.40;17.80;;;;;;;8.29;95.48;103151.81;3543591;40;20061;-67
2024/01/31 00:27:14;;;;;;;20.52;9.85;;;;;;;8.27;95.94;103169.69;3541781;40;20453;-69
2024/01/31 00:29:40;;;;;;;22.73;11.18;;;;;;;8.21;95.52;103159.94;3541516;40;20050;-67
2024/01/31 00:32:06;;;;;;;28.58;14.90;;;;;;;8.23;94.98;103163.50;3545184;40;20069;-67
2024/01/31 00:34:32;;;;;;;18.02;9.10;;;;;;;8.23;94.63;103179.59;3543509;40;20393;-67
2024/01/31 00:36:58;;;;;;;12.95;6.72;;;;;;;8.23;95.23;103176.03;3542070;40;20170;-67
2024/01/31 00:39:28;;;;;;;11.70;8.02;;;;;;;8.22;94.84;103179.63;3541081;40;20379;-68
2024/01/31 00:41:54;;;;;;;18.40;10.02;;;;;;;8.20;94.76;103184.09;3543238;40;20041;-67
2024/01/31 00:44:20;;;;;;;13.07;7.63;;;;;;;8.21;94.82;103183.19;3541789;40;20104;-67
2024/01/31 00:46:48;;;;;;;15.38;7.22;;;;;;;8.21;94.28;103188.53;3543111;40;20046;-67
2024/01/31 00:49:14;;;;;;;15.60;6.20;;;;;;;8.17;94.79;103186.81;3544193;40;20379;-67
2024/01/31 00:51:45;;;;;;;13.40;5.90;;;;;;;8.06;94.30;103170.91;3533018;40;20046;-67
2024/01/31 00:54:12;;;;;;;14.00;5.90;;;;;;;8.17;94.31;103190.38;3543305;40;20417;-67
2024/01/31 00:56:38;;;;;;;19.23;6.47;;;;;;;8.14;94.55;103185.06;3542570;40;20060;-67
2024/01/31 00:59:04;;;;;;;11.65;5.40;;;;;;;8.12;94.72;103181.53;3544646;40;20073;-67
2024/01/31 01:01:29;;;;;;;9.07;5.15;;;;;;;8.13;93.79;103189.53;3543609;40;20054;-67
2024/01/31 01:03:55;;;;;;;10.82;4.43;;;;;;;8.11;94.48;103191.34;3540873;40;20084;-67
2024/01/31 01:06:20;;;;;;;9.65;4.13;;;;;;;8.11;94.47;103188.66;3542941;40;20072;-67
2024/01/31 01:08:46;;;;;;;15.07;4.03;;;;;;;8.10;94.09;103196.75;3544366;40;20057;-67
2024/01/31 01:11:12;;;;;;;14.65;4.50;;;;;;;8.09;94.34;103209.25;3545892;40;20152;-67
2024/01/31 01:13:37;;;;;;;11.00;3.72;;;;;;;8.09;93.50;103209.25;3539938;40;20064;-67
2024/01/31 01:16:03;;;;;;;10.15;4.05;;;;;;;8.08;93.64;103204.78;3541757;40;20062;-67
2024/01/31 01:18:29;;;;;;;11.05;4.57;;;;;;;8.06;94.03;103201.25;3542886;40;20393;-67
2024/01/31 01:20:54;;;;;;;8.75;3.78;;;;;;;8.08;94.17;103207.47;3541737;40;20046;-67
2024/01/31 01:23:20;;;;;;;9.45;4.43;;;;;;;8.06;93.77;103195.00;3544357;40;20049;-68
2024/01/31 01:25:46;;;;;;;11.43;3.90;;;;;;;7.90;93.50;103181.81;3540513;40;20050;-67
2024/01/31 01:28:11;;;;;;;11.00;3.80;;;;;;;8.04;93.47;103200.38;3533102;40;20306;-67
2024/01/31 01:30:37;;;;;;;7.72;3.83;;;;;;;8.02;93.71;103207.53;3544932;40;20065;-67
2024/01/31 01:33:03;;;;;;;16.35;3.85;;;;;;;8.00;93.16;103209.38;3543405;40;20065;-67
2024/01/31 01:35:29;;;;;;;10.95;3.28;;;;;;;8.01;93.69;103205.78;3541356;40;20052;-67
2024/01/31 01:37:54;;;;;;;16.02;3.50;;;;;;;7.99;93.60;103201.34;3542062;40;20054;-67
2024/01/31 01:40:20;;;;;;;11.70;4.45;;;;;;;8.01;94.36;103197.75;3542000;40;20057;-67
2024/01/31 01:42:45;;;;;;;11.20;3.42;;;;;;;7.98;93.30;103205.81;3542946;40;20057;-67
2024/01/31 01:45:11;;;;;;;13.52;4.05;;;;;;;7.98;94.34;103211.16;3539274;40;20631;-67
2024/01/31 01:47:42;;;;;;;13.80;4.57;;;;;;;7.84;93.87;103176.53;3541058;40;20090;-67
2024/01/31 01:50:10;;;;;;;10.90;4.35;;;;;;;8.02;93.76;103220.94;3541873;40;20106;-67
2024/01/31 01:52:38;;;;;;;11.40;3.13;;;;;;;8.02;93.90;103212.91;3541318;40;20399;-67
2024/01/31 01:55:05;;;;;;;10.43;3.45;;;;;;;8.01;93.63;103200.41;3541837;40;20926;-68
2024/01/31 01:57:32;;;;;;;9.45;3.88;;;;;;;7.98;94.09;103200.47;3541467;40;20521;-67
2024/01/31 02:00:00;;;;;;;12.77;4.40;;;;;;;7.95;93.90;103195.13;3542013;40;20062;-67
2024/01/31 02:02:27;;;;;;;11.52;3.75;;;;;;;7.93;94.37;103185.34;3542115;40;20097;-68
2024/01/31 02:04:54;;;;;;;11.43;4.30;;;;;;;8.01;94.15;103200.41;3541834;40;20056;-67
2024/01/31 02:07:24;;;;;;;12.60;3.78;;;;;;;8.02;94.43;103191.47;3543138;40;20111;-68
2024/01/31 02:09:51;;;;;;;11.68;3.53;;;;;;;8.02;94.22;103196.81;3542850;40;20070;-67
2024/01/31 02:12:16;;;;;;;9.95;3.92;;;;;;;7.99;94.44;103201.34;3542173;40;20094;-67
2024/01/31 02:14:47;;;;;;;11.60;3.67;;;;;;;8.01;94.60;103202.22;3539520;40;20058;-67
2024/01/31 02:17:13;;;;;;;9.23;3.67;;;;;;;8.01;94.07;103195.06;3544531;40;20342;-67
2024/01/31 02:19:39;;;;;;;9.90;3.58;;;;;;;7.99;94.04;103199.56;3542296;40;20073;-67
2024/01/31 02:22:09;;;;;;;13.52;4.30;;;;;;;7.92;94.05;103189.81;3542041;40;20070;-67
2024/01/31 02:24:35;;;;;;;10.25;3.38;;;;;;;7.99;95.19;103201.34;3544346;40;20052;-67
2024/01/31 02:27:00;;;;;;;12.07;4.13;;;;;;;7.96;94.49;103186.22;3545644;40;20295;-67
2024/01/31 02:29:26;;;;;;;12.65;3.30;;;;;;;7.98;94.38;103186.19;3538669;40;20046;-67
2024/01/31 02:31:51;;;;;;;19.92;4.28;;;;;;;7.93;94.63;103191.63;3541670;40;20421;-67
2024/01/31 02:34:18;;;;;;;12.57;4.13;;;;;;;7.92;94.67;103203.22;3543705;40;20066;-67
2024/01/31 02:36:44;;;;;;;13.73;4.47;;;;;;;7.92;94.36;103197.84;3542708;40;20102;-67
2024/01/31 02:39:09;;;;;;;17.77;4.50;;;;;;;7.94;94.68;103205.88;3544659;40;20067;-67
2024/01/31 02:41:35;;;;;;;8.75;3.80;;;;;;;7.90;94.80;103197.88;3543230;40;20056;-68
2024/01/31 02:44:00;;;;;;;10.93;4.20;;;;;;;7.87;94.53;103195.25;3543674;40;20056;-67
2024/01/31 02:46:26;;;;;;;13.73;4.60;;;;;;;7.88;94.38;103205.03;3543081;40;20096;-67
2024/01/31 02:48:51;;;;;;;12.75;4.90;;;;;;;7.89;94.67;103200.56;3543300;40;20096;-67
2024/01/31 02:51:17;;;;;;;14.27;5.50;;;;;;;7.89;95.40;103203.25;3544152;40;20096;-67
2024/01/31 02:53:42;;;;;;;13.52;4.72;;;;;;;7.88;95.40;103196.13;3541580;40;20058;-67
2024/01/31 02:56:11;;;;;;;11.25;4.63;;;;;;;7.74;94.78;103169.53;3542082;40;20074;-67
2024/01/31 02:58:36;;;;;;;11.40;4.60;;;;;;;7.83;94.80;103180.13;3542483;40;20077;-67
2024/01/31 03:01:06;;;;;;;14.95;4.72;;;;;;;7.89;95.45;103184.50;3542842;40;20359;-67
2024/01/31 03:03:32;;;;;;;12.82;5.30;;;;;;;7.88;94.96;103178.25;3545560;40;20062;-67
2024/01/31 03:05:57;;;;;;;16.25;5.70;;;;;;;7.87;95.06;103180.97;3541812;40;20058;-67
2024/01/31 03:08:23;;;;;;;13.50;5.10;;;;;;;7.84;94.56;103172.97;3542253;40;20406;-67
2024/01/31 03:10:48;;;;;;;11.40;6.57;;;;;;;7.82;94.82;103169.44;3543747;40;20096;-67
2024/01/31 03:13:14;;;;;;;13.48;5.88;;;;;;;7.83;95.35;103163.16;3543088;40;20054;-67
2024/01/31 03:15:40;;;;;;;14.75;6.05;;;;;;;7.82;95.32;103158.72;3543739;40;20069;-67
2024/01/31 03:18:05;;;;;;;13.25;6.00;;;;;;;7.80;95.10;103165.88;3543461;40;20069;-67
2024/01/31 03:20:33;;;;;;;13.60;6.28;;;;;;;7.75;95.85;103160.59;3542754;40;20054;-67
2024/01/31 03:22:58;;;;;;;16.10;6.55;;;;;;;7.70;96.14;103167.78;3541353;40;20380;-67
2024/01/31 03:25:24;;;;;;;11.10;6.35;;;;;;;7.73;96.31;103166.88;3538127;40;20056;-67
2024/01/31 03:27:49;;;;;;;20.33;7.13;;;;;;;7.67;96.21;103138.38;3541955;40;20420;-67
2024/01/31 03:30:15;;;;;;;17.55;6.68;;;;;;;7.75;96.61;103154.34;3542678;40;20068;-67
2024/01/31 03:32:40;;;;;;;14.02;6.68;;;;;;;7.74;96.78;103153.47;3545065;40;20097;-67
2024/01/31 03:35:06;;;;;;;16.80;7.32;;;;;;;7.69;96.47;103149.94;3543400;40;20058;-66
2024/01/31 03:37:32;;;;;;;13.00;6.45;;;;;;;7.66;96.55;103156.22;3545307;40;20046;-66
2024/01/31 03:39:58;;;;;;;15.75;7.63;;;;;;;7.66;96.69;103153.56;3543410;40;20054;-67
2024/01/31 03:42:23;;;;;;;19.38;10.32;;;;;;;7.66;96.84;103153.56;3543834;40;20072;-67
2024/01/31 03:44:49;;;;;;;24.73;9.23;;;;;;;7.64;97.40;103158.06;3543417;40;20403;-67
2024/01/31 03:47:15;;;;;;;18.58;9.18;;;;;;;7.59;97.15;103138.47;3540921;40;20657;-67
2024/01/31 03:49:41;;;;;;;26.75;10.82;;;;;;;7.67;97.55;103147.31;3541068;40;20049;-67
2024/01/31 03:52:06;;;;;;;19.88;9.50;;;;;;;7.60;97.65;103129.53;3539791;40;20052;-67
2024/01/31 03:54:32;;;;;;;24.73;9.50;;;;;;;7.70;97.71;103140.13;3544998;40;20060;-67
2024/01/31 03:56:58;;;;;;;20.98;9.13;;;;;;;7.71;97.25;103148.16;3543187;40;20066;-67
2024/01/31 03:59:23;;;;;;;18.88;10.57;;;;;;;7.69;96.65;103147.28;3542990;40;20061;-67
2024/01/31 04:01:52;;;;;;;21.38;9.93;;;;;;;7.68;97.04;103133.00;3543759;40;20104;-67
2024/01/31 04:04:18;;;;;;;23.83;10.45;;;;;;;7.46;97.07;103101.19;3542009;40;20132;-67
2024/01/31 04:06:45;;;;;;;23.10;10.25;;;;;;;7.56;96.94;103127.81;3545120;40;20077;-67
2024/01/31 04:09:10;;;;;;;17.45;9.80;;;;;;;7.66;96.81;103150.88;3539418;40;20316;-66
2024/01/31 04:11:36;;;;;;;22.05;9.85;;;;;;;7.68;97.35;103141.03;3540321;40;20065;-67
2024/01/31 04:14:02;;;;;;;20.02;9.55;;;;;;;7.70;97.42;103135.66;3542091;40;20065;-67
2024/01/31 04:16:29;;;;;;;20.40;11.52;;;;;;;7.70;97.59;103137.44;3543596;40;20104;-67
2024/01/31 04:18:55;;;;;;;17.55;9.75;;;;;;;7.71;96.85;103131.19;3544526;40;20063;-67
2024/01/31 04:21:22;;;;;;;19.63;9.80;;;;;;;7.67;97.55;103143.72;3545071;40;20415;-67
2024/01/31 04:23:48;;;;;;;18.20;10.55;;;;;;;7.67;97.34;103146.41;3543532;40;20066;-67
2024/01/31 04:26:14;;;;;;;18.30;9.82;;;;;;;7.65;97.45;103138.41;3540884;40;20054;-67
2024/01/31 04:28:39;;;;;;;20.63;9.98;;;;;;;7.67;97.93;103146.41;3543999;40;20061;-67
2024/01/31 04:31:15;;;;;;;25.00;12.25;;;;;;;7.64;97.50;103144.66;3545142;40;20088;-67
2024/01/31 04:33:42;;;;;;;19.77;10.73;;;;;;;7.64;97.91;103141.09;3542679;40;20050;-67
2024/01/31 04:36:08;;;;;;;20.95;11.05;;;;;;;7.62;97.10;103148.25;3542426;40;20062;-66
2024/01/31 04:38:34;;;;;;;26.17;11.38;;;;;;;7.60;97.92;103145.59;3539696;40;20061;-67
2024/01/31 04:41:01;;;;;;;23.05;11.95;;;;;;;7.59;98.26;103143.81;3539295;40;20219;-67
2024/01/31 04:43:27;;;;;;;25.75;14.25;;;;;;;7.60;98.31;103150.94;3542004;40;20410;-67
2024/01/31 04:45:53;;;;;;;30.63;18.38;;;;;;;7.60;98.28;103142.91;3542623;40;20053;-66
2024/01/31 04:48:18;;;;;;;19.48;11.52;;;;;;;7.59;97.52;103133.13;3540155;40;20061;-67
2024/01/31 04:50:44;;;;;;;23.35;11.20;;;;;;;7.60;98.09;103139.34;3541636;40;20054;-67
2024/01/31 04:53:10;;;;;;;24.23;11.50;;;;;;;7.58;98.37;103144.75;3540777;40;20056;-67
2024/01/31 04:55:35;;;;;;;25.00;11.32;;;;;;;7.61;97.84;103143.78;3539927;40;20395;-67
2024/01/31 04:58:01;;;;;;;18.52;10.98;;;;;;;7.63;98.02;103144.66;3543703;40;20056;-67
2024/01/31 05:00:28;;;;;;;21.52;11.70;;;;;;;7.62;98.38;103137.56;3541788;40;20280;-67
2024/01/31 05:02:53;;;;;;;18.30;11.85;;;;;;;7.62;97.79;103127.72;3543638;40;20080;-67
2024/01/31 05:05:22;;;;;;;29.48;12.10;;;;;;;7.63;97.44;103136.63;3539737;40;20414;-67
2024/01/31 05:07:47;;;;;;;22.75;12.05;;;;;;;7.63;97.62;103137.53;3541673;40;20058;-67
2024/01/31 05:10:13;;;;;;;18.70;12.05;;;;;;;7.61;97.59;103130.41;3540905;40;20078;-67
2024/01/31 05:12:39;;;;;;;20.42;11.40;;;;;;;7.61;97.33;103131.31;3544703;40;20060;-67
2024/01/31 05:15:05;;;;;;;23.38;12.05;;;;;;;7.61;97.26;103133.09;3542621;40;20322;-67
2024/01/31 05:17:31;;;;;;;26.60;12.60;;;;;;;7.59;97.41;103138.47;3544144;40;20101;-67
2024/01/31 05:19:57;;;;;;;23.45;12.93;;;;;;;7.55;97.66;103123.38;3540037;40;20605;-67
2024/01/31 05:22:22;;;;;;;23.48;11.95;;;;;;;7.55;97.60;103123.38;3544944;40;20244;-67
2024/01/31 05:24:48;;;;;;;22.55;11.63;;;;;;;7.54;97.80;103121.56;3541182;40;20061;-67
2024/01/31 05:27:13;;;;;;;25.73;13.45;;;;;;;7.54;98.04;103121.56;3541269;40;20053;-67
2024/01/31 05:29:39;;;;;;;24.05;13.10;;;;;;;7.52;97.44;103130.56;3541159;40;20099;-67
2024/01/31 05:32:05;;;;;;;26.42;13.38;;;;;;;7.51;97.55;103129.63;3540292;40;20065;-67
2024/01/31 05:34:31;;;;;;;23.27;13.00;;;;;;;7.53;97.54;103133.19;3539333;40;20065;-67
2024/01/31 05:36:56;;;;;;;24.45;12.93;;;;;;;7.55;98.04;103133.16;3538049;40;20062;-67
2024/01/31 05:39:22;;;;;;;20.55;11.93;;;;;;;7.57;97.77;103123.34;3538575;40;20050;-67
2024/01/31 05:41:48;;;;;;;26.98;12.23;;;;;;;7.56;97.68;103132.28;3539940;40;20084;-67
2024/01/31 05:44:14;;;;;;;23.08;13.02;;;;;;;7.56;97.07;103133.16;3539147;40;20069;-67
2024/01/31 05:46:39;;;;;;;23.15;13.43;;;;;;;7.56;97.11;103133.16;3540826;40;20062;-67
2024/01/31 05:49:05;;;;;;;21.90;13.65;;;;;;;7.54;96.71;103137.63;3542014;40;20085;-66
2024/01/31 05:51:31;;;;;;;25.88;13.30;;;;;;;7.52;96.65;103130.56;3542065;40;20060;-67
2024/01/31 05:53:56;;;;;;;22.35;13.45;;;;;;;7.53;97.46;103130.53;3546187;40;20771;-67
2024/01/31 05:56:22;;;;;;;22.25;13.45;;;;;;;7.54;96.99;103129.59;3544586;40;20061;-67
2024/01/31 05:58:48;;;;;;;23.98;13.48;;;;;;;7.50;97.78;103122.53;3547476;40;20477;-67
2024/01/31 06:01:14;;;;;;;25.05;14.40;;;;;;;7.50;97.87;103127.88;3543639;40;20094;-67
2024/01/31 06:03:40;;;;;;;21.95;13.43;;;;;;;7.54;97.99;103132.28;3543485;40;20069;-67
2024/01/31 06:06:06;;;;;;;25.98;14.98;;;;;;;7.54;96.92;103128.72;3544960;40;20050;-67
2024/01/31 06:08:33;;;;;;;25.00;14.80;;;;;;;7.37;97.82;103099.50;3544667;40;20092;-67
2024/01/31 06:11:03;;;;;;;24.95;14.05;;;;;;;7.55;97.04;103142.09;3545722;40;20058;-67
2024/01/31 06:13:32;;;;;;;23.52;14.73;;;;;;;7.43;97.49;103124.41;3544573;40;20074;-67
2024/01/31 06:15:58;;;;;;;19.45;13.95;;;;;;;7.39;97.76;103103.03;3545078;40;20094;-67
2024/01/31 06:18:24;;;;;;;27.77;14.77;;;;;;;7.53;97.16;103121.59;3543265;40;20084;-67
2024/01/31 06:20:50;;;;;;;29.92;14.77;;;;;;;7.56;96.83;103133.16;3544250;40;20092;-67
2024/01/31 06:23:16;;;;;;;26.20;15.48;;;;;;;7.56;96.90;103133.16;3545172;40;20078;-67
2024/01/31 06:25:42;;;;;;;27.02;15.80;;;;;;;7.55;96.99;103120.69;3545647;40;20096;-67
2024/01/31 06:28:07;;;;;;;25.73;15.90;;;;;;;7.53;97.42;103105.56;3547195;40;20576;-67
2024/01/31 06:30:41;;;;;;;78.43;40.92;;;;;;;7.54;97.14;103113.53;3545469;40;20050;-67
2024/01/31 06:33:08;;;;;;;33.92;19.20;;;;;;;7.53;97.51;103105.56;3544106;40;20062;-67
2024/01/31 06:35:35;;;;;;;32.38;17.25;;;;;;;7.54;97.01;103108.19;3540804;40;20058;-67
2024/01/31 06:38:05;;;;;;;29.55;17.67;;;;;;;7.53;96.88;103089.50;3546524;40;20382;-67
2024/01/31 06:40:31;;;;;;;29.48;17.02;;;;;;;7.53;96.81;103100.19;3538283;40;20056;-67
2024/01/31 06:43:00;;;;;;;26.17;16.85;;;;;;;7.41;97.50;103069.13;3546597;40;20383;-67
2024/01/31 06:45:25;;;;;;;26.42;16.67;;;;;;;7.54;97.38;103083.22;3543374;40;20057;-67
2024/01/31 06:47:52;;;;;;;24.42;16.33;;;;;;;7.32;97.20;103047.81;3543290;40;20415;-67
2024/01/31 06:50:18;;;;;;;27.65;16.80;;;;;;;7.48;97.05;103070.81;3543471;40;20057;-67
2024/01/31 06:52:44;;;;;;;30.63;17.42;;;;;;;7.43;97.40;103070.00;3546026;40;20062;-67
2024/01/31 06:55:10;;;;;;;24.25;16.00;;;;;;;7.45;98.12;103076.19;3544152;40;20050;-67
2024/01/31 06:57:37;;;;;;;29.35;16.92;;;;;;;7.42;97.94;103070.88;3543469;40;20098;-67
2024/01/31 07:00:11;;;;;;;28.05;17.13;;;;;;;7.44;97.34;103079.78;3543882;40;20123;-67
2024/01/31 07:02:37;;;;;;;;;;;;;;;7.43;97.61;103086.06;3546745;40;20084;-67
2024/01/31 07:05:04;;;;;;;30.52;17.70;;;;;;;7.43;97.32;103094.06;3545592;40;19936;-67
2024/01/31 07:07:30;;;;;;;26.33;17.23;;;;;;;7.44;97.50;103102.06;3544922;40;20057;-67
2024/01/31 07:09:56;;;;;;;27.65;17.33;;;;;;;7.39;97.94;103095.91;3543597;40;20046;-67
2024/01/31 07:12:22;;;;;;;33.45;18.45;;;;;;;7.47;97.61;103117.22;3541873;40;21591;-67
2024/01/31 07:14:47;;;;;;;27.65;17.60;;;;;;;7.47;97.73;103133.25;3545023;40;20300;-67
2024/01/31 07:17:13;;;;;;;30.58;18.05;;;;;;;7.46;97.27;103146.69;3542373;40;20046;-67
2024/01/31 07:19:42;;;;;;;27.55;18.38;;;;;;;7.49;97.69;103150.19;3549277;40;20143;-67
2024/01/31 07:22:09;;;;;;;29.40;18.13;;;;;;;7.52;97.65;103158.19;3544540;40;20302;-67
2024/01/31 07:24:35;;;;;;;28.85;17.85;;;;;;;7.52;97.00;103163.56;3544565;40;20057;-67
2024/01/31 07:27:02;;;;;;;27.95;17.67;;;;;;;7.52;97.07;103168.91;3542346;40;20061;-67
2024/01/31 07:29:28;;;;;;;24.95;17.20;;;;;;;7.56;97.28;103184.00;3544730;40;20060;-67
2024/01/31 07:31:54;;;;;;;30.40;18.90;;;;;;;7.54;96.74;103183.13;3543696;40;20062;-67
2024/01/31 07:34:19;;;;;;;33.97;18.52;;;;;;;7.56;97.20;103178.66;3542390;40;20109;-67
2024/01/31 07:36:45;;;;;;;25.27;17.60;;;;;;;7.55;97.05;103179.56;3544855;40;20322;-67
2024/01/31 07:39:11;;;;;;;26.25;17.00;;;;;;;7.59;97.49;103188.44;3545243;40;20086;-67
2024/01/31 07:41:37;;;;;;;29.23;18.00;;;;;;;7.60;97.28;103191.09;3535532;40;20398;-67
2024/01/31 07:44:03;;;;;;;28.88;19.17;;;;;;;7.60;97.02;103188.41;3541581;40;20046;-67
2024/01/31 07:46:30;;;;;;;31.05;18.60;;;;;;;7.59;97.36;103183.97;3543019;40;20132;-68
2024/01/31 07:48:55;;;;;;;35.33;19.65;;;;;;;7.60;96.71;103188.41;3545293;40;20307;-68
2024/01/31 07:51:21;;;;;;;33.10;20.45;;;;;;;7.61;97.04;103184.84;3542078;40;20057;-67
2024/01/31 07:53:47;;;;;;;39.00;22.27;;;;;;;7.60;96.45;103192.88;3540670;40;20077;-67
2024/01/31 07:56:12;;;;;;;50.90;24.67;;;;;;;7.59;96.63;103181.31;3543187;40;20061;-67
2024/01/31 07:58:38;;;;;;;76.38;36.70;;;;;;;7.62;96.54;103191.09;3542985;40;20077;-67
2024/01/31 08:01:04;;;;;;;53.20;29.00;;;;;;;7.60;97.09;103185.75;3542720;40;20050;-67
2024/01/31 08:03:30;;;;;;;40.08;25.38;;;;;;;7.33;96.56;103120.06;3536146;40;20077;-67
2024/01/31 08:05:55;;;;;;;35.20;22.98;;;;;;;7.65;96.35;103178.56;3545384;40;20068;-67
2024/01/31 08:08:21;;;;;;;32.15;21.50;;;;;;;7.66;96.26;103183.00;3541823;40;20054;-67
2024/01/31 08:10:47;;;;;;;34.78;21.67;;;;;;;7.65;96.34;103178.56;3543009;40;20130;-68
2024/01/31 08:13:12;;;;;;;32.45;20.75;;;;;;;7.66;97.00;103174.97;3543038;40;20060;-67
2024/01/31 08:15:38;;;;;;;35.22;22.20;;;;;;;7.51;96.76;103139.47;3542897;40;20062;-67
2024/01/31 08:18:04;;;;;;;32.50;21.63;;;;;;;7.66;96.44;103161.59;3543211;40;20394;-67
2024/01/31 08:20:30;;;;;;;32.60;21.15;;;;;;;7.71;96.94;103168.66;3542104;40;20399;-68
2024/01/31 08:22:56;;;;;;;31.95;21.00;;;;;;;7.72;96.17;103178.47;3543612;40;20050;-67
2024/01/31 08:25:22;;;;;;;35.15;22.52;;;;;;;7.71;96.11;103168.66;3543732;40;20061;-67
2024/01/31 08:27:49;;;;;;;36.40;20.75;;;;;;;7.74;95.84;103182.00;3544523;40;20054;-67
2024/01/31 08:30:16;;;;;;;37.83;21.92;;;;;;;7.75;97.10;103175.78;3543670;40;20123;-67
2024/01/31 08:32:42;;;;;;;40.88;23.92;;;;;;;7.77;96.41;103169.50;3542815;40;20090;-67
2024/01/31 08:35:10;;;;;;;36.00;21.95;;;;;;;7.78;96.89;103170.38;3542663;40;20151;-67
2024/01/31 08:37:36;;;;;;;35.03;24.60;;;;;;;7.80;96.84;103163.19;3542836;40;20068;-67
2024/01/31 08:40:01;;;;;;;37.78;23.67;;;;;;;7.82;96.25;103164.06;3540682;40;20070;-67
2024/01/31 08:42:28;;;;;;;40.45;26.65;;;;;;;7.84;96.29;103149.75;3541859;40;20057;-68
2024/01/31 08:44:55;;;;;;;34.33;22.55;;;;;;;7.85;95.97;103145.28;3540758;40;20586;-67
2024/01/31 08:47:21;;;;;;;36.58;21.33;;;;;;;7.85;96.39;103145.28;3540958;40;20409;-67
2024/01/31 08:49:51;;;;;;;36.25;21.70;;;;;;;7.85;96.41;103145.28;3541677;40;20070;-67
2024/01/31 08:52:16;;;;;;;34.25;21.77;;;;;;;7.87;96.38;103143.50;3542430;40;20045;-67
2024/01/31 08:54:42;;;;;;;37.80;21.77;;;;;;;7.90;96.46;103146.13;3542050;40;20065;-67
2024/01/31 08:57:08;;;;;;;37.63;23.02;;;;;;;7.92;96.36;103141.63;3542181;40;20049;-67
2024/01/31 08:59:34;;;;;;;36.10;21.05;;;;;;;7.97;96.45;103138.88;3539963;40;20061;-67
2024/01/31 09:01:59;;;;;;;37.03;22.58;;;;;;;7.95;96.95;103124.63;3542374;40;20057;-67
2024/01/31 09:04:25;;;;;;;35.28;22.45;;;;;;;7.83;96.14;103114.97;3538797;40;20050;-67
2024/01/31 09:06:50;;;;;;;39.15;23.38;;;;;;;7.99;96.23;103129.03;3541896;40;20068;-68
2024/01/31 09:09:16;;;;;;;39.08;23.33;;;;;;;8.00;96.42;103128.13;3541634;40;20061;-67
2024/01/31 09:11:42;;;;;;;38.10;22.58;;;;;;;8.03;96.96;103117.38;3542317;40;20073;-68
2024/01/31 09:14:07;;;;;;;38.08;23.70;;;;;;;8.05;96.49;103108.38;3541331;40;20062;-68
2024/01/31 09:16:34;;;;;;;36.15;23.58;;;;;;;8.04;96.28;103108.44;3541232;40;20172;-67
2024/01/31 09:19:01;;;;;;;42.70;25.10;;;;;;;8.05;96.73;103108.38;3543750;40;20330;-67
2024/01/31 09:21:27;;;;;;;39.42;23.30;;;;;;;8.07;96.73;103097.66;3540344;40;20042;-68
2024/01/31 09:23:56;;;;;;;38.88;24.85;;;;;;;8.09;96.42;103095.88;3541405;40;20056;-67
2024/01/31 09:26:23;;;;;;;39.83;24.80;;;;;;;8.08;95.82;103092.28;3538986;40;20072;-67
2024/01/31 09:28:49;;;;;;;38.67;23.83;;;;;;;8.08;96.44;103086.03;3542990;40;20085;-67
2024/01/31 09:31:26;;;;;;;37.03;24.10;;;;;;;8.04;96.05;103078.97;3542940;40;20066;-68
2024/01/31 09:33:54;;;;;;;39.60;23.75;;;;;;;8.08;96.06;103076.19;3541723;40;20382;-67
2024/01/31 09:36:21;;;;;;;44.25;26.83;;;;;;;8.10;96.46;103082.44;3542113;40;20081;-68
2024/01/31 09:38:47;;;;;;;45.00;27.67;;;;;;;8.08;97.14;103076.19;3541044;40;20121;-68
2024/01/31 09:41:18;;;;;;;45.13;27.45;;;;;;;8.18;97.27;103078.75;3532379;40;20043;-68
2024/01/31 09:43:45;;;;;;;42.05;26.17;;;;;;;8.24;96.66;103084.00;3539678;40;20053;-68
2024/01/31 09:46:13;;;;;;;41.95;26.65;;;;;;;8.09;96.41;103044.97;3542029;40;20394;-68
2024/01/31 09:48:40;;;;;;;37.47;24.65;;;;;;;8.18;96.49;103052.81;3542185;40;20111;-68
2024/01/31 09:51:07;;;;;;;37.65;25.13;;;;;;;8.32;95.68;103063.34;3543242;40;20066;-67
2024/01/31 09:53:36;;;;;;;38.03;25.13;;;;;;;8.33;95.02;103057.94;3541201;40;20057;-68
2024/01/31 09:56:05;;;;;;;32.67;23.08;;;;;;;8.37;95.32;103054.31;3541782;40;20098;-68
2024/01/31 09:58:31;;;;;;;35.40;23.60;;;;;;;8.43;94.49;103057.81;3539139;40;20054;-68
2024/01/31 10:01:02;;;;;;;34.47;21.90;;;;;;;8.47;93.79;103060.44;3542472;40;20073;-68
2024/01/31 10:03:28;;;;;;;32.45;20.88;;;;;;;8.49;93.13;103058.59;3539370;40;20057;-68
2024/01/31 10:05:53;;;;;;;32.33;20.92;;;;;;;8.55;92.76;103062.97;3540317;40;20061;-68
2024/01/31 10:08:19;;;;;;;29.92;20.27;;;;;;;8.57;90.99;103063.84;3541433;40;20058;-68
2024/01/31 10:10:45;;;;;;;29.48;19.10;;;;;;;8.65;90.56;103063.69;3541288;40;20053;-69
2024/01/31 10:13:11;;;;;;;30.27;19.52;;;;;;;8.72;90.89;103070.72;3541331;40;20065;-69
2024/01/31 10:15:36;;;;;;;25.20;17.30;;;;;;;8.79;89.86;103080.44;3541167;40;20058;-69
2024/01/31 10:18:03;;;;;;;27.35;17.60;;;;;;;8.78;88.20;103078.66;3541456;40;20050;-68
2024/01/31 10:20:30;;;;;;;27.20;17.95;;;;;;;8.80;87.73;103076.84;3539377;40;20120;-69
2024/01/31 10:22:57;;;;;;;23.88;16.75;;;;;;;8.82;87.12;103083.06;3546547;40;20143;-68
2024/01/31 10:25:25;;;;;;;26.00;18.13;;;;;;;8.84;86.88;103092.81;3544230;40;20061;-68
2024/01/31 10:27:52;;;;;;;21.90;16.10;;;;;;;8.83;84.88;103090.19;3530259;40;20049;-68
2024/01/31 10:30:18;;;;;;;26.40;16.83;;;;;;;8.87;85.80;103094.56;3542754;40;20049;-68
2024/01/31 10:32:46;;;;;;;22.98;16.63;;;;;;;8.91;85.94;103099.00;3542428;40;20058;-68
2024/01/31 10:35:12;;;;;;;25.95;17.30;;;;;;;8.83;84.81;103076.78;3541948;40;20102;-68
2024/01/31 10:37:38;;;;;;;21.77;15.38;;;;;;;8.92;84.05;103099.88;3540200;40;20059;-68
2024/01/31 10:40:14;;;;;;;21.65;14.32;;;;;;;8.93;81.94;103090.91;3542194;40;20049;-69
2024/01/31 10:42:41;;;;;;;19.27;12.90;;;;;;;8.94;81.57;103093.53;3544367;40;20892;-68
2024/01/31 10:45:07;;;;;;;18.77;14.07;;;;;;;8.79;81.25;103062.53;3544076;40;20160;-69
2024/01/31 10:47:33;;;;;;;19.35;13.68;;;;;;;8.95;81.28;103100.69;3544608;40;20094;-69
2024/01/31 10:50:01;;;;;;;22.00;13.68;;;;;;;8.81;81.11;103075.91;3543155;40;20062;-68
2024/01/31 10:52:34;;;;;;;18.40;12.98;;;;;;;8.94;81.14;103090.84;3542318;40;20062;-68
2024/01/31 10:55:03;;;;;;;18.45;13.07;;;;;;;8.97;80.83;103092.59;3542437;40;20052;-68
2024/01/31 10:57:32;;;;;;;17.40;12.60;;;;;;;8.91;79.11;103087.34;3542377;40;20065;-68
2024/01/31 10:59:59;;;;;;;17.88;12.18;;;;;;;8.89;78.57;103082.03;3544257;40;20375;-68
2024/01/31 11:02:33;;;;;;;17.50;11.77;;;;;;;8.89;78.24;103079.34;3541600;40;20050;-68
2024/01/31 11:05:01;;;;;;;18.08;12.20;;;;;;;8.90;78.87;103081.09;3541722;40;20094;-68
2024/01/31 11:07:27;;;;;;;16.27;12.32;;;;;;;8.90;77.75;103075.75;3541655;40;20619;-68
2024/01/31 11:09:54;;;;;;;16.27;12.27;;;;;;;8.91;78.46;103077.53;3543924;40;20136;-68
2024/01/31 11:12:20;;;;;;;19.85;12.38;;;;;;;8.89;77.94;103073.09;3543082;40;20056;-68
2024/01/31 11:14:48;;;;;;;16.38;12.48;;;;;;;8.86;78.73;103062.44;3543483;40;20046;-68